createdAt,value
2022-12-11T00:01:45.310Z,7.95
2022-12-11T00:06:50.862Z,8.18
2022-12-11T00:11:53.268Z,9.32
2022-12-11T00:16:55.804Z,10.18
2022-12-11T00:21:58.221Z,18.38
2022-12-11T00:27:00.689Z,13.23
2022-12-11T00:32:03.046Z,11.07
2022-12-11T00:37:05.425Z,11.15
2022-12-11T00:42:09.419Z,12.48
2022-12-11T00:47:11.784Z,14.57
2022-12-11T00:52:14.323Z,12.25
2022-12-11T00:57:16.725Z,12.93
2022-12-11T01:02:19.081Z,11.88
2022-12-11T01:07:21.483Z,5.57
2022-12-11T01:12:23.952Z,3.45
2022-12-11T01:17:26.222Z,1.80
2022-12-11T01:22:28.494Z,1.60
2022-12-11T01:27:30.792Z,1.00
2022-12-11T01:32:33.290Z,1.58
2022-12-11T01:37:35.872Z,0.70
2022-12-11T01:42:38.251Z,1.15
2022-12-11T01:47:40.876Z,0.90
2022-12-11T01:52:45.547Z,1.10
2022-12-11T01:57:50.485Z,1.40
2022-12-11T02:02:52.844Z,0.98
2022-12-11T02:07:59.744Z,1.15
2022-12-11T02:13:14.981Z,1.65
2022-12-11T02:18:20.083Z,1.00
2022-12-11T02:23:46.281Z,1.13
2022-12-11T02:28:56.417Z,1.10
2022-12-11T02:34:23.187Z,1.27
2022-12-11T02:39:27.493Z,1.33
2022-12-11T02:44:32.648Z,1.58
2022-12-11T02:49:36.051Z,2.03
2022-12-11T02:54:41.836Z,1.70
2022-12-11T02:59:45.957Z,1.85
2022-12-11T03:04:48.531Z,2.08
2022-12-11T03:09:51.521Z,3.85
2022-12-11T03:14:54.413Z,2.58
2022-12-11T03:20:02.667Z,2.80
2022-12-11T03:25:10.682Z,1.70
2022-12-11T03:30:19.450Z,2.20
2022-12-11T03:35:31.895Z,2.22
2022-12-11T03:40:37.594Z,3.00
2022-12-11T03:45:41.713Z,2.65
2022-12-11T03:50:44.896Z,3.20
2022-12-11T03:55:50.034Z,3.38
2022-12-11T04:00:52.483Z,3.10
2022-12-11T04:05:56.436Z,4.28
2022-12-11T04:11:17.344Z,3.03
2022-12-11T04:16:19.707Z,2.80
2022-12-11T04:21:40.599Z,2.53
2022-12-11T04:26:45.454Z,3.58
2022-12-11T04:31:47.912Z,4.25
2022-12-11T04:36:50.949Z,4.03
2022-12-11T04:41:53.350Z,4.72
2022-12-11T04:46:55.720Z,5.50
2022-12-11T04:51:58.015Z,5.70
2022-12-11T04:57:00.498Z,3.67
2022-12-11T05:02:02.922Z,2.60
2022-12-11T05:07:05.261Z,2.80
2022-12-11T05:12:07.765Z,3.65
2022-12-11T05:17:10.130Z,4.85
2022-12-11T05:22:12.517Z,3.50
2022-12-11T05:27:14.973Z,4.18
2022-12-11T05:32:17.346Z,3.50
2022-12-11T05:37:19.733Z,3.97
2022-12-11T05:42:28.550Z,4.63
2022-12-11T05:47:32.174Z,4.65
2022-12-11T05:52:34.574Z,4.25
2022-12-11T05:57:36.846Z,4.75
2022-12-11T06:02:39.254Z,4.90
2022-12-11T06:07:41.594Z,5.32
2022-12-11T06:12:43.980Z,5.70
2022-12-11T06:17:46.287Z,5.05
2022-12-11T06:22:49.066Z,7.03
2022-12-11T06:27:51.602Z,7.25
2022-12-11T06:32:53.914Z,6.05
2022-12-11T06:37:56.481Z,7.32
2022-12-11T06:42:58.765Z,8.35
2022-12-11T06:48:01.058Z,8.05
2022-12-11T06:53:04.397Z,10.40
2022-12-11T06:58:06.730Z,8.95
2022-12-11T07:03:10.714Z,9.02
2022-12-11T07:08:13.040Z,7.35
2022-12-11T07:13:15.517Z,8.85
2022-12-11T07:18:17.860Z,5.95
2022-12-11T07:23:20.199Z,6.70
2022-12-11T07:28:22.553Z,8.40
2022-12-11T07:33:24.879Z,8.05
2022-12-11T07:38:27.451Z,8.30
2022-12-11T07:43:30.003Z,8.80
2022-12-11T07:48:32.831Z,11.10
2022-12-11T07:53:35.172Z,13.85
2022-12-11T07:58:39.625Z,13.05
2022-12-11T08:03:43.172Z,14.60
2022-12-11T08:08:47.426Z,15.60
2022-12-11T08:13:50.475Z,15.02
2022-12-11T08:18:54.464Z,14.48
2022-12-11T08:23:57.349Z,13.90
2022-12-11T08:29:01.444Z,14.68
2022-12-11T08:34:04.078Z,14.27
2022-12-11T08:39:06.565Z,13.63
2022-12-11T08:44:16.600Z,13.80
2022-12-11T08:49:19.711Z,13.20
2022-12-11T08:54:22.239Z,14.65
2022-12-11T08:59:26.135Z,15.30
2022-12-11T09:04:28.739Z,19.48
2022-12-11T09:09:31.325Z,16.80
2022-12-11T09:14:33.843Z,14.50
2022-12-11T09:19:36.310Z,12.55
2022-12-11T09:24:40.050Z,11.50
2022-12-11T09:29:42.423Z,10.98
2022-12-11T09:34:45.403Z,23.35
2022-12-11T09:39:48.003Z,14.63
2022-12-11T09:45:03.507Z,18.88
2022-12-11T09:50:12.038Z,16.13
2022-12-11T09:55:18.239Z,14.40
2022-12-11T10:00:40.335Z,11.63
2022-12-11T10:05:48.456Z,7.38
2022-12-11T10:11:28.648Z,7.35
2022-12-11T10:16:44.768Z,7.05
2022-12-11T10:21:50.031Z,6.10
2022-12-11T10:26:58.928Z,4.68
2022-12-11T10:32:02.099Z,3.93
2022-12-11T10:37:04.595Z,6.43
2022-12-11T10:42:19.655Z,3.00
2022-12-11T10:47:22.101Z,8.20
2022-12-11T12:40:07.323Z,4.37
2022-12-11T12:45:30.328Z,4.68
2022-12-11T12:50:40.920Z,4.75
2022-12-11T12:55:44.720Z,5.20
2022-12-11T13:00:47.935Z,7.60
2022-12-11T13:06:11.596Z,5.80
2022-12-11T13:11:17.050Z,2.72
2022-12-11T13:16:19.366Z,7.57
2022-12-11T13:21:28.659Z,7.18
2022-12-11T13:26:33.290Z,2.20
2022-12-11T13:31:40.594Z,1.55
2022-12-11T13:36:49.396Z,1.10
2022-12-11T13:42:22.793Z,0.77
2022-12-11T13:47:26.326Z,1.33
2022-12-11T13:52:29.145Z,1.77
2022-12-11T13:57:31.615Z,0.60
2022-12-11T14:02:43.093Z,0.88
2022-12-11T14:07:52.440Z,0.70
2022-12-11T14:13:02.579Z,0.70
2022-12-11T14:18:06.210Z,4.32
2022-12-11T14:23:18.661Z,2.65
2022-12-11T14:28:22.121Z,3.95
2022-12-11T14:33:31.763Z,1.17
2022-12-11T14:44:07.111Z,1.40
2022-12-11T14:49:22.820Z,2.60
2022-12-11T14:54:51.799Z,3.70
2022-12-11T14:59:55.616Z,5.28
2022-12-11T15:05:18.725Z,4.93
2022-12-11T15:10:27.633Z,6.00
2022-12-11T15:15:33.446Z,8.53
2022-12-11T15:20:35.954Z,7.15
2022-12-11T15:25:38.387Z,8.13
2022-12-11T15:30:41.083Z,3.28
2022-12-11T15:35:55.131Z,16.90
2022-12-11T15:40:58.344Z,19.40
2022-12-11T15:46:02.888Z,5.72
2022-12-11T15:51:05.819Z,5.40
2022-12-11T15:56:13.769Z,12.98
2022-12-11T16:01:16.122Z,9.90
2022-12-11T16:06:18.439Z,9.23
2022-12-11T16:11:20.741Z,8.70
2022-12-11T16:16:23.088Z,7.90
2022-12-11T16:21:25.408Z,10.77
2022-12-11T16:26:27.709Z,11.85
2022-12-11T16:31:30.068Z,13.63
2022-12-11T16:36:32.541Z,8.68
2022-12-11T16:41:34.869Z,12.00
2022-12-11T16:46:38.067Z,12.18
2022-12-11T16:51:40.514Z,6.80
2022-12-11T16:56:43.154Z,5.30
2022-12-11T17:01:45.834Z,4.28
2022-12-11T17:06:49.105Z,5.28
2022-12-11T17:11:51.503Z,7.50
2022-12-11T17:16:53.896Z,3.38
2022-12-11T17:21:57.496Z,3.53
2022-12-11T17:27:00.291Z,3.50
2022-12-11T17:32:03.745Z,5.45
2022-12-11T17:37:06.537Z,6.15
2022-12-11T17:42:08.930Z,6.35
2022-12-11T17:47:12.579Z,7.63
2022-12-11T17:52:15.017Z,9.75
2022-12-11T17:57:17.447Z,10.18
2022-12-11T18:02:19.840Z,7.82
2022-12-11T18:07:23.059Z,9.93
2022-12-11T18:12:25.452Z,10.65
2022-12-11T18:17:27.993Z,8.98
2022-12-11T18:22:30.295Z,4.15
2022-12-11T18:27:32.518Z,5.13
2022-12-11T18:32:35.310Z,8.00
2022-12-11T18:37:38.440Z,9.60
2022-12-11T18:42:40.679Z,8.13
2022-12-11T18:47:42.951Z,11.55
2022-12-11T18:52:45.487Z,8.88
2022-12-11T18:57:48.819Z,26.02
2022-12-11T19:02:53.120Z,10.15
2022-12-11T19:07:55.390Z,13.15
2022-12-11T19:12:57.905Z,13.98
2022-12-11T19:18:00.379Z,17.25
2022-12-11T19:23:02.834Z,28.10
2022-12-11T19:28:05.744Z,13.75
2022-12-11T19:33:07.969Z,10.68
2022-12-11T19:38:10.435Z,4.85
2022-12-11T19:43:12.736Z,9.70
2022-12-11T19:48:15.337Z,8.65
2022-12-11T19:53:17.660Z,6.70
2022-12-11T19:58:20.557Z,7.53
2022-12-11T20:03:22.915Z,13.57
2022-12-11T20:08:44.205Z,14.00
2022-12-11T20:13:51.013Z,11.30
2022-12-11T20:18:55.145Z,30.65
2022-12-11T20:23:57.675Z,14.43
2022-12-11T20:28:59.925Z,10.68
2022-12-11T20:34:02.722Z,11.15
2022-12-11T20:39:05.584Z,12.25
2022-12-11T20:44:08.085Z,10.40
2022-12-11T20:49:13.354Z,9.85
2022-12-11T20:54:15.585Z,9.15
2022-12-11T20:59:18.155Z,10.23
2022-12-11T21:04:20.425Z,11.40
2022-12-11T21:09:26.042Z,10.75
2022-12-11T21:14:29.522Z,4.72
2022-12-11T21:19:31.781Z,3.55
2022-12-11T21:24:34.547Z,5.20
2022-12-11T21:29:36.823Z,8.68
2022-12-11T21:34:39.079Z,7.80
2022-12-11T21:39:41.330Z,8.35
2022-12-11T21:50:06.397Z,26.42
2022-12-11T21:55:09.147Z,19.20
2022-12-11T22:00:12.312Z,20.10
2022-12-11T22:05:14.981Z,18.88
2022-12-11T22:10:17.409Z,14.70
2022-12-11T22:15:20.101Z,12.18
2022-12-11T22:20:22.505Z,17.67
2022-12-11T22:25:25.126Z,26.58
2022-12-11T22:30:27.727Z,24.35
2022-12-11T22:35:30.140Z,9.55
2022-12-11T22:40:32.581Z,5.03
2022-12-11T22:45:39.784Z,4.38
2022-12-11T22:50:42.426Z,4.90
2022-12-11T22:55:44.710Z,7.25
2022-12-11T23:00:47.523Z,8.20
2022-12-11T23:05:49.950Z,8.05
2022-12-11T23:10:52.888Z,7.35
2022-12-11T23:15:55.141Z,7.03
2022-12-11T23:20:57.835Z,5.55
2022-12-11T23:26:00.372Z,4.20
2022-12-11T23:31:02.959Z,2.80
2022-12-11T23:36:05.852Z,2.58
2022-12-11T23:41:10.651Z,1.80
2022-12-11T23:46:16.539Z,1.30
2022-12-11T23:51:21.031Z,1.15
2022-12-11T23:56:26.728Z,1.30
